createdAt,value
2019-01-18T00:00:51.601Z,91.50
2019-01-18T00:03:20.415Z,91.30
2019-01-18T00:05:48.985Z,91.20
2019-01-18T00:08:20.748Z,91.10
2019-01-18T00:10:51.174Z,91.50
2019-01-18T00:13:21.029Z,91.70
2019-01-18T00:15:49.728Z,91.60
2019-01-18T00:18:18.744Z,91.10
2019-01-18T00:20:47.383Z,90.90
2019-01-18T00:23:16.014Z,90.90
2019-01-18T00:25:45.073Z,90.80
2019-01-18T00:28:13.616Z,90.90
2019-01-18T00:30:42.403Z,90.40
2019-01-18T00:33:11.793Z,90.50
2019-01-18T00:35:41.544Z,90.60
2019-01-18T00:38:10.425Z,90.70
2019-01-18T00:40:39.035Z,90.80
2019-01-18T00:43:07.720Z,91.00
2019-01-18T00:45:36.288Z,91.00
2019-01-18T00:48:04.928Z,90.90
2019-01-18T00:50:33.805Z,90.90
2019-01-18T00:53:02.536Z,90.90
2019-01-18T00:55:31.448Z,91.00
2019-01-18T00:58:00.304Z,91.00
2019-01-18T01:00:30.225Z,91.20
2019-01-18T01:02:59.279Z,91.00
2019-01-18T01:05:27.934Z,91.20
2019-01-18T01:07:56.952Z,91.10
2019-01-18T01:10:25.920Z,91.30
2019-01-18T01:12:54.468Z,91.30
2019-01-18T01:15:23.448Z,91.30
2019-01-18T01:17:52.236Z,91.30
2019-01-18T01:20:22.644Z,91.20
2019-01-18T01:22:51.987Z,91.00
2019-01-18T01:25:21.227Z,91.00
2019-01-18T01:27:50.707Z,91.10
2019-01-18T01:30:21.772Z,91.20
2019-01-18T01:32:51.523Z,91.20
2019-01-18T01:35:20.487Z,91.40
2019-01-18T01:37:49.113Z,91.40
2019-01-18T01:40:23.268Z,91.50
2019-01-18T01:42:54.409Z,91.50
2019-01-18T01:45:23.086Z,91.50
2019-01-18T01:47:51.823Z,91.30
2019-01-18T01:50:22.577Z,91.30
2019-01-18T01:52:51.617Z,91.30
2019-01-18T01:55:21.662Z,91.20
2019-01-18T01:57:50.487Z,91.20
2019-01-18T02:00:21.451Z,91.20
2019-01-18T02:02:50.329Z,91.30
2019-01-18T02:05:18.903Z,91.10
2019-01-18T02:07:47.596Z,91.20
2019-01-18T02:10:17.078Z,91.40
2019-01-18T02:12:45.682Z,91.80
2019-01-18T02:15:19.467Z,91.60
2019-01-18T02:17:48.313Z,91.70
2019-01-18T02:20:18.406Z,91.70
2019-01-18T02:22:47.168Z,91.80
2019-01-18T02:25:15.823Z,92.00
2019-01-18T02:27:45.143Z,92.20
2019-01-18T02:30:26.902Z,92.20
2019-01-18T02:32:56.832Z,92.60
2019-01-18T02:35:25.574Z,92.90
2019-01-18T02:37:54.880Z,92.80
2019-01-18T02:40:23.839Z,92.90
2019-01-18T02:42:52.692Z,93.10
2019-01-18T02:45:22.675Z,93.20
2019-01-18T02:47:51.603Z,93.30
2019-01-18T02:50:20.475Z,93.30
2019-01-18T02:52:49.223Z,93.50
2019-01-18T02:55:17.912Z,93.60
2019-01-18T02:57:46.480Z,93.70
2019-01-18T03:00:17.162Z,93.70
2019-01-18T03:02:46.813Z,93.70
2019-01-18T03:05:16.475Z,93.50
2019-01-18T03:07:45.029Z,93.30
2019-01-18T03:10:19.405Z,93.50
2019-01-18T03:12:47.980Z,93.80
2019-01-18T03:15:16.524Z,94.10
2019-01-18T03:17:45.090Z,94.30
2019-01-18T03:20:14.657Z,94.50
2019-01-18T03:22:43.212Z,94.50
2019-01-18T03:25:14.580Z,94.70
2019-01-18T03:27:43.135Z,94.80
2019-01-18T03:30:18.538Z,95.00
2019-01-18T03:32:44.171Z,95.20
2019-01-18T03:35:14.252Z,95.40
2019-01-18T03:37:42.809Z,95.30
2019-01-18T03:40:12.534Z,95.30
2019-01-18T03:42:41.150Z,95.20
2019-01-18T03:45:12.132Z,95.00
2019-01-18T03:47:40.695Z,95.10
2019-01-18T03:50:11.987Z,95.30
2019-01-18T03:52:40.552Z,95.10
2019-01-18T03:55:09.274Z,95.10
2019-01-18T03:57:37.955Z,95.30
2019-01-18T04:00:11.078Z,95.20
2019-01-18T04:02:41.078Z,95.30
2019-01-18T04:05:09.697Z,95.10
2019-01-18T04:07:38.253Z,95.30
2019-01-18T04:10:08.458Z,95.30
2019-01-18T04:12:37.013Z,95.30
2019-01-18T04:15:07.947Z,95.30
2019-01-18T04:17:36.512Z,95.40
2019-01-18T04:20:06.384Z,95.30
2019-01-18T04:22:34.936Z,95.40
2019-01-18T04:25:04.039Z,95.30
2019-01-18T04:27:32.679Z,95.30
2019-01-18T04:30:03.090Z,95.60
2019-01-18T04:32:31.644Z,95.60
2019-01-18T04:35:00.301Z,95.60
2019-01-18T04:37:28.956Z,95.50
2019-01-18T04:39:57.497Z,95.50
2019-01-18T04:42:26.057Z,95.60
2019-01-18T04:44:54.620Z,95.60
2019-01-18T04:47:23.285Z,95.50
2019-01-18T04:49:51.834Z,95.50
2019-01-18T04:52:20.399Z,95.60
2019-01-18T04:54:50.342Z,95.70
2019-01-18T04:57:18.920Z,95.80
2019-01-18T04:59:47.488Z,95.60
2019-01-18T05:02:16.069Z,95.60
2019-01-18T05:04:44.639Z,95.50
2019-01-18T05:07:13.338Z,95.40
2019-01-18T05:09:41.897Z,95.20
2019-01-18T05:12:10.468Z,95.20
2019-01-18T05:14:39.028Z,95.10
2019-01-18T05:17:07.593Z,95.10
2019-01-18T05:19:36.159Z,95.60
2019-01-18T05:22:04.733Z,95.00
2019-01-18T05:24:33.292Z,94.90
2019-01-18T05:27:01.876Z,94.90
2019-01-18T05:29:30.424Z,95.00
2019-01-18T05:31:58.985Z,95.10
2019-01-18T05:34:27.533Z,95.10
2019-01-18T05:36:56.086Z,95.30
2019-01-18T05:39:24.663Z,95.10
2019-01-18T05:41:53.216Z,94.90
2019-01-18T05:44:21.768Z,94.70
2019-01-18T05:46:50.351Z,94.40
2019-01-18T05:49:18.917Z,94.40
2019-01-18T05:51:47.489Z,93.80
2019-01-18T05:54:16.052Z,93.60
2019-01-18T05:56:44.602Z,93.30
2019-01-18T05:59:13.199Z,92.70
2019-01-18T06:01:41.766Z,92.80
2019-01-18T06:04:11.259Z,92.70
2019-01-18T06:06:39.823Z,92.70
2019-01-18T06:09:08.972Z,92.50
2019-01-18T06:11:37.537Z,92.60
2019-01-18T06:14:06.115Z,92.80
2019-01-18T06:16:34.680Z,93.00
2019-01-18T06:19:03.356Z,93.10
2019-01-18T06:21:31.919Z,93.50
2019-01-18T06:24:00.497Z,93.70
2019-01-18T06:26:30.007Z,93.90
2019-01-18T06:28:58.560Z,93.80
2019-01-18T06:31:27.145Z,93.90
2019-01-18T06:33:55.700Z,93.90
2019-01-18T06:36:33.829Z,94.00
2019-01-18T06:39:11.097Z,94.10
2019-01-18T06:41:53.737Z,94.10
2019-01-18T06:44:22.852Z,94.00
2019-01-18T06:46:52.038Z,93.50
2019-01-18T06:49:21.029Z,93.70
2019-01-18T06:51:50.058Z,93.70
2019-01-18T06:54:18.603Z,93.90
2019-01-18T06:56:47.195Z,94.10
2019-01-18T06:59:15.748Z,94.10
2019-01-18T07:01:44.312Z,93.90
2019-01-18T07:04:12.949Z,94.00
2019-01-18T07:06:41.512Z,94.40
2019-01-18T07:09:10.096Z,94.50
2019-01-18T07:11:38.680Z,94.70
2019-01-18T07:14:07.257Z,94.40
2019-01-18T07:16:35.836Z,94.30
2019-01-18T07:19:04.471Z,93.90
2019-01-18T07:21:33.051Z,93.90
2019-01-18T07:24:01.608Z,93.70
2019-01-18T07:26:30.188Z,93.70
2019-01-18T07:28:58.743Z,93.70
2019-01-18T07:31:27.461Z,93.80
2019-01-18T07:33:57.228Z,93.90
2019-01-18T07:36:25.812Z,94.10
2019-01-18T07:39:00.387Z,94.30
2019-01-18T07:41:25.259Z,94.30
2019-01-18T07:43:53.841Z,94.50
2019-01-18T07:46:22.427Z,94.60
2019-01-18T07:48:50.983Z,94.60
2019-01-18T07:51:19.572Z,94.60
2019-01-18T07:53:48.186Z,94.60
2019-01-18T07:56:16.856Z,94.60
2019-01-18T07:58:45.438Z,94.50
2019-01-18T08:01:14.024Z,94.30
2019-01-18T08:03:42.637Z,94.10
2019-01-18T08:06:11.201Z,93.70
2019-01-18T08:08:39.775Z,92.70
2019-01-18T08:11:08.340Z,92.80
2019-01-18T08:13:36.936Z,92.80
2019-01-18T08:16:05.541Z,92.90
2019-01-18T08:18:34.128Z,92.90
2019-01-18T08:21:02.727Z,92.80
2019-01-18T08:23:31.304Z,92.80
2019-01-18T08:26:00.143Z,92.40
2019-01-18T08:28:28.720Z,92.20
2019-01-18T08:30:57.283Z,91.00
2019-01-18T08:33:25.858Z,90.40
2019-01-18T08:35:54.434Z,90.30
2019-01-18T08:38:23.006Z,89.70
2019-01-18T08:40:51.590Z,89.50
2019-01-18T08:43:20.237Z,87.30
2019-01-18T08:45:51.691Z,87.20
2019-01-18T08:48:21.245Z,83.20
2019-01-18T08:50:49.825Z,82.10
2019-01-18T08:53:18.404Z,79.80
2019-01-18T08:55:47.109Z,80.10
2019-01-18T08:58:15.682Z,79.80
2019-01-18T09:00:44.266Z,75.90
2019-01-18T09:03:12.829Z,77.30
2019-01-18T09:05:41.393Z,73.50
2019-01-18T09:08:09.969Z,75.20
2019-01-18T09:10:38.996Z,74.00
2019-01-18T09:13:07.562Z,73.80
2019-01-18T09:15:37.297Z,74.70
2019-01-18T09:18:06.017Z,72.90
2019-01-18T09:20:34.601Z,70.20
2019-01-18T09:23:06.194Z,70.90
2019-01-18T09:25:34.781Z,69.60
2019-01-18T09:28:03.342Z,68.30
2019-01-18T09:30:33.686Z,65.80
2019-01-18T09:33:03.706Z,65.00
2019-01-18T09:35:32.649Z,66.50
2019-01-18T09:38:01.457Z,65.10
2019-01-18T09:40:31.691Z,64.60
2019-01-18T09:43:01.192Z,64.90
2019-01-18T09:45:29.812Z,60.00
2019-01-18T09:47:58.411Z,59.40
2019-01-18T09:50:28.970Z,57.60
2019-01-18T09:53:00.034Z,59.00
2019-01-18T09:55:28.606Z,58.00
2019-01-18T09:57:57.175Z,55.60
2019-01-18T10:00:36.150Z,55.20
2019-01-18T10:03:05.120Z,53.00
2019-01-18T10:05:33.797Z,53.70
2019-01-18T10:08:03.145Z,54.50
2019-01-18T10:10:31.736Z,56.90
2019-01-18T10:13:00.465Z,56.50
2019-01-18T10:15:32.254Z,55.00
2019-01-18T10:18:01.048Z,56.60
2019-01-18T10:20:31.214Z,56.40
2019-01-18T10:22:59.798Z,58.00
2019-01-18T10:25:28.378Z,56.70
2019-01-18T10:27:56.953Z,56.60
2019-01-18T10:30:25.878Z,54.60
2019-01-18T10:32:54.450Z,56.80
2019-01-18T10:35:23.378Z,56.80
2019-01-18T10:37:51.948Z,59.20
2019-01-18T10:40:20.506Z,57.90
2019-01-18T10:42:50.375Z,57.30
2019-01-18T10:45:19.154Z,56.20
2019-01-18T10:47:48.043Z,58.20
2019-01-18T10:50:18.767Z,57.90
2019-01-18T10:52:47.571Z,60.30
2019-01-18T10:55:16.214Z,62.30
2019-01-18T10:57:44.790Z,62.50
2019-01-18T11:00:16.142Z,62.90
2019-01-18T11:02:44.734Z,60.30
2019-01-18T11:05:13.417Z,57.40
2019-01-18T11:07:41.994Z,59.10
2019-01-18T11:10:12.098Z,62.20
2019-01-18T11:12:40.676Z,58.30
2019-01-18T11:15:10.931Z,56.10
2019-01-18T11:17:39.502Z,56.60
2019-01-18T11:20:38.356Z,54.30
2019-01-18T11:23:06.929Z,52.00
2019-01-18T11:25:35.506Z,52.00
2019-01-18T11:28:05.265Z,51.00
2019-01-18T11:30:33.838Z,53.00
2019-01-18T11:33:02.419Z,52.80
2019-01-18T11:35:31.101Z,54.40
2019-01-18T11:37:59.674Z,52.60
2019-01-18T11:40:28.252Z,50.70
2019-01-18T11:42:56.845Z,49.80
2019-01-18T11:45:25.427Z,48.70
2019-01-18T11:47:53.990Z,47.40
2019-01-18T11:50:24.222Z,49.00
2019-01-18T11:52:52.797Z,48.60
2019-01-18T11:55:21.386Z,48.70
2019-01-18T11:57:49.937Z,49.10
2019-01-18T12:00:23.590Z,49.10
2019-01-18T12:02:52.196Z,50.60
2019-01-18T12:05:20.788Z,49.70
2019-01-18T12:07:49.625Z,47.90
2019-01-18T12:10:26.203Z,47.40
2019-01-18T12:12:54.759Z,46.50
2019-01-18T12:15:28.388Z,45.70
2019-01-18T12:17:56.941Z,43.50
2019-01-18T12:20:28.316Z,43.60
2019-01-18T12:22:56.884Z,45.10
2019-01-18T12:25:27.496Z,43.20
2019-01-18T12:27:56.067Z,44.20
2019-01-18T12:30:29.926Z,44.00
2019-01-18T12:32:58.495Z,44.30
2019-01-18T12:35:27.069Z,43.30
2019-01-18T12:37:55.638Z,46.40
2019-01-18T12:40:24.221Z,45.10
2019-01-18T12:42:52.802Z,44.70
2019-01-18T12:45:21.850Z,44.30
2019-01-18T12:47:50.414Z,45.10
2019-01-18T12:50:30.485Z,44.10
2019-01-18T12:52:59.069Z,42.10
2019-01-18T12:55:27.649Z,41.90
2019-01-18T12:57:56.250Z,44.20
2019-01-18T13:00:24.966Z,43.70
2019-01-18T13:02:53.538Z,42.40
2019-01-18T13:05:28.245Z,44.10
2019-01-18T13:07:56.869Z,44.60
2019-01-18T13:10:25.461Z,43.70
2019-01-18T13:12:54.043Z,42.20
2019-01-18T13:15:29.537Z,40.70
2019-01-18T13:17:58.115Z,41.10
2019-01-18T13:20:26.686Z,40.80
2019-01-18T13:22:56.172Z,41.90
2019-01-18T13:25:24.754Z,44.20
2019-01-18T13:27:53.331Z,43.90
2019-01-18T13:30:21.918Z,44.70
2019-01-18T13:32:50.495Z,45.80
2019-01-18T13:35:19.159Z,44.10
2019-01-18T13:37:47.720Z,45.70
2019-01-18T13:40:17.949Z,45.70
2019-01-18T13:42:46.522Z,45.40
2019-01-18T13:45:15.104Z,46.10
2019-01-18T13:47:43.891Z,47.40
2019-01-18T13:50:14.616Z,49.00
2019-01-18T13:52:43.265Z,49.50
2019-01-18T13:55:15.037Z,50.00
2019-01-18T13:57:43.609Z,52.20
2019-01-18T14:00:12.334Z,52.70
2019-01-18T14:02:40.898Z,54.60
2019-01-18T14:05:10.315Z,55.40
2019-01-18T14:07:39.037Z,56.30
2019-01-18T14:10:12.606Z,57.10
2019-01-18T14:12:41.177Z,55.70
2019-01-18T14:15:10.763Z,55.50
2019-01-18T14:17:40.022Z,55.20
2019-01-18T14:20:11.774Z,56.40
2019-01-18T14:22:41.286Z,57.10
2019-01-18T14:25:09.891Z,58.00
2019-01-18T14:27:38.498Z,57.90
2019-01-18T14:30:10.184Z,58.70
2019-01-18T14:32:39.962Z,59.50
2019-01-18T14:35:08.534Z,61.60
2019-01-18T14:37:37.104Z,62.60
2019-01-18T14:40:06.674Z,63.10
2019-01-18T14:42:35.254Z,64.70
2019-01-18T14:45:04.761Z,65.00
2019-01-18T14:47:33.335Z,64.80
2019-01-18T14:50:01.917Z,64.40
2019-01-18T14:52:30.482Z,63.80
2019-01-18T14:54:59.086Z,64.60
2019-01-18T14:57:27.657Z,62.70
2019-01-18T14:59:56.228Z,60.90
2019-01-18T15:02:24.812Z,60.30
2019-01-18T15:04:53.398Z,59.80
2019-01-18T15:07:21.974Z,59.60
2019-01-18T15:09:50.566Z,58.10
2019-01-18T15:12:19.142Z,58.70
2019-01-18T15:14:48.857Z,57.70
2019-01-18T15:17:17.458Z,58.40
2019-01-18T15:19:46.057Z,59.40
2019-01-18T15:22:14.933Z,59.60
2019-01-18T15:24:44.585Z,60.00
2019-01-18T15:27:13.126Z,60.50
2019-01-18T15:29:41.706Z,61.60
2019-01-18T15:32:10.278Z,63.70
2019-01-18T15:34:39.134Z,69.00
2019-01-18T15:37:07.719Z,67.70
2019-01-18T15:39:36.289Z,73.40
2019-01-18T15:42:04.862Z,70.20
2019-01-18T15:44:33.459Z,68.80
2019-01-18T15:47:02.034Z,69.80
2019-01-18T15:49:30.597Z,69.30
2019-01-18T15:51:59.157Z,70.50
2019-01-18T15:54:28.651Z,70.90
2019-01-18T15:56:57.220Z,71.50
2019-01-18T15:59:25.808Z,73.30
2019-01-18T16:01:54.412Z,74.10
2019-01-18T16:04:22.988Z,74.20
2019-01-18T16:06:51.559Z,75.20
2019-01-18T16:09:30.454Z,76.90
2019-01-18T16:11:59.074Z,77.90
2019-01-18T16:14:27.652Z,79.40
2019-01-18T16:17:13.503Z,80.60
2019-01-18T16:19:42.079Z,80.00
2019-01-18T16:22:11.224Z,79.40
2019-01-18T16:24:43.756Z,81.40
2019-01-18T16:27:12.422Z,81.80
2019-01-18T16:29:41.104Z,82.60
2019-01-18T16:32:10.182Z,83.20
2019-01-18T16:34:38.732Z,82.40
2019-01-18T16:37:07.335Z,83.70
2019-01-18T16:39:35.982Z,83.80
2019-01-18T16:42:05.085Z,84.10
2019-01-18T16:44:33.679Z,84.50
2019-01-18T16:47:02.262Z,83.50
2019-01-18T16:49:31.264Z,83.70
2019-01-18T16:51:59.843Z,84.60
2019-01-18T16:54:28.413Z,85.20
2019-01-18T16:56:56.995Z,85.00
2019-01-18T16:59:25.570Z,85.80
2019-01-18T17:01:54.124Z,85.90
2019-01-18T17:04:22.700Z,86.10
2019-01-18T17:06:51.288Z,86.50
2019-01-18T17:09:19.865Z,86.60
2019-01-18T17:11:48.449Z,87.30
2019-01-18T17:14:18.114Z,87.00
2019-01-18T17:16:46.700Z,86.70
2019-01-18T17:19:16.586Z,87.30
2019-01-18T17:21:46.184Z,86.40
2019-01-18T17:24:14.746Z,86.90
2019-01-18T17:26:43.336Z,88.00
2019-01-18T17:29:11.917Z,87.70
2019-01-18T17:31:40.515Z,87.50
2019-01-18T17:34:09.072Z,87.00
2019-01-18T17:36:58.789Z,87.50
2019-01-18T17:40:01.595Z,86.70
2019-01-18T17:42:40.745Z,87.20
2019-01-18T17:45:52.712Z,87.10
2019-01-18T17:48:48.219Z,87.20
2019-01-18T17:51:47.705Z,87.90
2019-01-18T17:54:44.350Z,87.40
2019-01-18T17:57:31.225Z,87.70
2019-01-18T18:00:39.181Z,87.70
2019-01-18T18:03:43.372Z,88.70
2019-01-18T18:06:45.222Z,89.70
2019-01-18T18:09:45.134Z,89.90
2019-01-18T18:12:50.422Z,89.30
2019-01-18T18:15:47.213Z,89.70
2019-01-18T18:18:53.359Z,90.10
2019-01-18T18:22:03.190Z,90.30
2019-01-18T18:24:46.691Z,90.40
2019-01-18T18:27:52.342Z,90.20
2019-01-18T18:30:35.238Z,90.50
2019-01-18T18:33:50.395Z,90.70
2019-01-18T18:36:48.922Z,90.50
2019-01-18T18:39:41.278Z,90.90
2019-01-18T18:42:34.605Z,90.90
2019-01-18T18:45:31.668Z,90.50
2019-01-18T18:48:27.493Z,91.00
2019-01-18T18:51:54.619Z,91.30
2019-01-18T18:55:22.625Z,91.40
2019-01-18T18:58:27.606Z,91.50
2019-01-18T19:01:10.682Z,91.40
2019-01-18T19:04:17.796Z,91.90
2019-01-18T19:07:27.736Z,91.60
2019-01-18T19:10:19.506Z,91.80
2019-01-18T19:13:31.399Z,92.00
2019-01-18T19:16:41.613Z,92.00
2019-01-18T19:19:51.129Z,92.10
2019-01-18T19:22:41.446Z,92.20
2019-01-18T19:25:30.214Z,92.10
2019-01-18T19:28:10.379Z,91.90
2019-01-18T19:31:09.565Z,92.20
2019-01-18T19:34:22.632Z,92.10
2019-01-18T19:37:17.400Z,91.80
2019-01-18T19:40:20.521Z,91.80
2019-01-18T19:43:37.406Z,91.70
2019-01-18T19:46:22.486Z,91.70
2019-01-18T19:49:10.762Z,91.60
2019-01-18T19:52:10.025Z,91.70
2019-01-18T19:54:46.554Z,91.60
2019-01-18T19:57:37.229Z,91.80
2019-01-18T20:00:50.367Z,91.60
2019-01-18T20:03:41.710Z,91.70
2019-01-18T20:06:50.768Z,91.80
2019-01-18T20:10:02.878Z,91.70
2019-01-18T20:13:00.541Z,91.80
2019-01-18T20:16:12.526Z,91.80
2019-01-18T20:19:27.832Z,91.80
2019-01-18T20:22:23.393Z,92.00
2019-01-18T20:25:05.604Z,91.90
2019-01-18T20:28:03.230Z,92.00
2019-01-18T20:30:53.226Z,92.00
2019-01-18T20:34:02.669Z,92.00
2019-01-18T20:37:13.443Z,92.00
2019-01-18T20:40:04.937Z,91.90
2019-01-18T20:43:12.179Z,92.10
2019-01-18T20:46:18.090Z,92.10
2019-01-18T20:49:24.342Z,92.40
2019-01-18T20:52:20.546Z,92.50
2019-01-18T20:55:01.798Z,92.80
2019-01-18T20:57:39.976Z,92.70
2019-01-18T21:00:46.478Z,92.70
2019-01-18T21:04:04.366Z,92.60
2019-01-18T21:06:45.682Z,92.80
2019-01-18T21:09:39.238Z,92.80
2019-01-18T21:12:29.966Z,92.60
2019-01-18T21:15:14.578Z,92.40
2019-01-18T21:18:02.428Z,92.70
2019-01-18T21:21:11.483Z,92.70
2019-01-18T21:24:32.761Z,92.70
2019-01-18T21:27:17.031Z,92.80
2019-01-18T21:30:27.195Z,92.80
2019-01-18T21:33:23.694Z,92.70
2019-01-18T21:36:26.486Z,92.90
2019-01-18T21:39:40.133Z,92.90
2019-01-18T21:42:28.353Z,93.20
2019-01-18T21:45:38.854Z,92.90
2019-01-18T21:48:52.226Z,93.10
2019-01-18T21:51:43.418Z,92.90
2019-01-18T21:54:57.523Z,92.90
2019-01-18T21:58:15.390Z,93.00
2019-01-18T22:01:04.303Z,92.80
2019-01-18T22:03:59.738Z,92.80
2019-01-18T22:07:07.664Z,92.80
2019-01-18T22:10:02.365Z,92.90
2019-01-18T22:13:04.928Z,92.90
2019-01-18T22:15:57.110Z,92.70
2019-01-18T22:18:32.818Z,92.80
2019-01-18T22:21:41.010Z,92.80
2019-01-18T22:24:45.906Z,93.10
2019-01-18T22:27:55.140Z,92.60
2019-01-18T22:31:01.258Z,92.50
2019-01-18T22:33:34.634Z,92.60
2019-01-18T22:36:56.868Z,92.70
2019-01-18T22:39:49.975Z,92.70
2019-01-18T22:42:30.209Z,92.80
2019-01-18T22:45:36.351Z,92.80
2019-01-18T22:48:37.787Z,92.80
2019-01-18T22:51:57.117Z,92.80
2019-01-18T22:55:06.283Z,92.80
2019-01-18T22:58:01.470Z,92.70
2019-01-18T23:01:15.121Z,92.70
2019-01-18T23:04:12.522Z,92.80
2019-01-18T23:07:22.578Z,92.90
2019-01-18T23:10:11.538Z,93.10
2019-01-18T23:13:14.082Z,93.20
2019-01-18T23:16:07.608Z,93.10
2019-01-18T23:19:06.786Z,92.90
2019-01-18T23:22:18.277Z,92.80
2019-01-18T23:25:00.765Z,92.90
2019-01-18T23:28:10.900Z,92.90
2019-01-18T23:30:51.814Z,93.00
2019-01-18T23:33:57.798Z,93.00
2019-01-18T23:37:05.026Z,93.10
2019-01-18T23:40:19.952Z,93.20
2019-01-18T23:43:29.629Z,93.60
2019-01-18T23:46:42.842Z,93.60
2019-01-18T23:49:39.202Z,93.20
2019-01-18T23:52:40.400Z,93.00
2019-01-18T23:55:47.147Z,93.10
2019-01-18T23:58:37.538Z,93.30
